KDPA

Dupage Airport

Chicago/West Chicago, Illinois, USA
METAR KDPA 212252Z 06011G20KT 3SM BR OVC009 19/18 A2976 RMK AO2 SLP075 T01890178
Observed Flight Rules
Jun-21 @ 22:52 UTC (an hour ago) Instrument Flight Rules
Wind Visibility Clouds Conditions
60° at 11 knots
 Gusting to 20 knots
3 miles
  • Overcast at 900' AGL
  • Mist
Temperatures Readings
Current 19°C / 66°F
Dewpoint 18°C / 64°F
Humidity 94%
Altimeter 29.76" Hg
Pressure 1007.5 hPa
Elevation 231
METAR KDPA 212252Z 06011G20KT 3SM BR OVC009 19/18 A2976 RMK AO2 SLP075 T01890178
Observed Flight Rules
Jun-21 @ 22:52 UTC
(an hour ago)
IFR
Wind Visibility
60° at 11 knots
 Gusting to 20 knots
3 miles
Clouds
  • Overcast at 900' AGL
Conditions
  • Mist
Temperature Dewpoint
19°C / 66°F 18°C / 64°F
Humidity Altimeter Pressure
94% 29.76" Hg 1007.5 hPa